Chipping Campden, United Kingdom
Current Conditions -  °F | °C
As of 7:50 AM on Friday 24 Oct 2014 (Local Time) from EGBJ Reporting Station
Scattered Clouds Scattered Clouds  
Wind Chill: 57°   Ceiling: Unl
Heat Index: 57°   Visibility: 6mi
Dew Point: 55°   Wind: 7mph
Humidity: 94%   Direction: 200°SSW
Pressure: 29.91"   Gusts: NA
Location:  52.05°N, 1.78°W
Report Text: EGBJ 240650Z 20006KT 9999 FEW007 SCT023 14/13 Q1013
Loading
Personal Weather Stations






























Interactive Weather Map New forecast layout! Learn more

10-Day Weather Forecast

Advertisements
Track Severe Weather on mobile